createdAt,value
2018-07-01T00:02:23.813Z,22.07
2018-07-01T00:07:19.517Z,22.12
2018-07-01T00:12:14.839Z,22.00
2018-07-01T00:17:10.164Z,21.81
2018-07-01T00:22:05.456Z,21.79
2018-07-01T00:27:00.846Z,21.67
2018-07-01T00:31:56.113Z,21.59
2018-07-01T00:36:51.963Z,21.49
2018-07-01T00:41:50.149Z,21.46
2018-07-01T00:46:45.841Z,21.34
2018-07-01T00:51:41.409Z,21.40
2018-07-01T00:56:36.723Z,21.32
2018-07-01T01:01:32.091Z,21.22
2018-07-01T01:06:27.350Z,21.06
2018-07-01T01:11:22.854Z,20.87
2018-07-01T01:16:18.086Z,20.79
2018-07-01T01:21:13.348Z,20.53
2018-07-01T01:26:08.823Z,20.44
2018-07-01T01:31:03.801Z,20.36
2018-07-01T01:35:59.220Z,20.23
2018-07-01T01:41:01.070Z,19.91
2018-07-01T01:46:02.542Z,19.63
2018-07-01T01:52:03.567Z,19.52
2018-07-01T01:57:03.814Z,19.31
2018-07-01T02:02:05.971Z,19.15
2018-07-01T02:07:05.149Z,19.14
2018-07-01T02:12:01.776Z,19.04
2018-07-01T02:16:59.812Z,19.01
2018-07-01T02:21:55.947Z,19.00
2018-07-01T02:26:51.144Z,18.97
2018-07-01T02:31:47.547Z,18.98
2018-07-01T02:36:42.800Z,18.92
2018-07-01T02:41:38.223Z,18.86
2018-07-01T02:46:33.655Z,18.84
2018-07-01T02:51:30.050Z,18.70
2018-07-01T02:56:24.938Z,18.57
2018-07-01T03:01:19.742Z,18.52
2018-07-01T03:06:16.076Z,18.45
2018-07-01T03:11:11.349Z,18.33
2018-07-01T03:16:06.615Z,18.21
2018-07-01T03:21:01.883Z,18.11
2018-07-01T03:25:57.233Z,18.13
2018-07-01T03:30:52.451Z,18.13
2018-07-01T03:35:47.780Z,17.83
2018-07-01T03:40:43.123Z,17.89
2018-07-01T03:45:39.353Z,17.93
2018-07-01T03:50:34.566Z,18.07
2018-07-01T03:55:29.855Z,18.27
2018-07-01T04:00:26.014Z,18.70
2018-07-01T04:05:21.693Z,19.68
2018-07-01T04:10:17.318Z,20.21
2018-07-01T04:15:12.952Z,20.56
2018-07-01T04:20:08.560Z,20.61
2018-07-01T04:25:04.151Z,20.04
2018-07-01T04:29:59.642Z,19.39
2018-07-01T04:34:55.246Z,18.98
2018-07-01T04:39:51.746Z,19.74
2018-07-01T04:44:48.353Z,20.42
2018-07-01T04:49:43.501Z,20.86
2018-07-01T04:54:38.809Z,22.02
2018-07-01T04:59:33.949Z,22.68
2018-07-01T05:04:29.020Z,23.85
2018-07-01T05:09:24.090Z,23.82
2018-07-01T05:14:19.234Z,23.09
2018-07-01T05:19:14.168Z,24.31
2018-07-01T05:24:09.085Z,25.35
2018-07-01T05:29:04.135Z,23.86
2018-07-01T05:33:59.059Z,23.74
2018-07-01T05:38:53.899Z,23.59
2018-07-01T05:43:48.715Z,24.20
2018-07-01T05:48:43.625Z,25.32
2018-07-01T05:53:38.436Z,25.74
2018-07-01T05:58:33.325Z,25.40
2018-07-01T06:03:28.213Z,25.99
2018-07-01T06:08:22.920Z,25.35
2018-07-01T06:13:17.894Z,26.34
2018-07-01T06:18:12.785Z,25.25
2018-07-01T06:23:07.792Z,24.71
2018-07-01T06:28:02.821Z,22.62
2018-07-01T06:32:57.489Z,22.45
2018-07-01T06:37:52.000Z,22.63
2018-07-01T06:42:46.857Z,22.60
2018-07-01T06:47:41.632Z,22.33
2018-07-01T06:52:36.616Z,22.57
2018-07-01T06:57:31.599Z,21.88
2018-07-01T07:02:26.512Z,22.21
2018-07-01T07:07:21.357Z,22.22
2018-07-01T07:12:16.283Z,21.99
2018-07-01T07:17:11.304Z,22.49
2018-07-01T07:22:06.533Z,22.86
2018-07-01T07:27:01.333Z,22.62
2018-07-01T07:31:56.389Z,22.71
2018-07-01T07:36:51.481Z,22.47
2018-07-01T07:41:46.440Z,23.02
2018-07-01T07:46:41.397Z,22.85
2018-07-01T07:51:36.435Z,23.30
2018-07-01T07:56:31.413Z,23.59
2018-07-01T08:01:26.564Z,23.04
2018-07-01T08:06:21.999Z,22.56
2018-07-01T08:11:17.186Z,22.69
2018-07-01T08:16:12.484Z,22.90
2018-07-01T08:21:07.774Z,23.51
2018-07-01T08:26:03.044Z,23.42
2018-07-01T08:30:58.590Z,23.03
2018-07-01T08:35:54.229Z,23.38
2018-07-01T08:40:49.633Z,23.92
2018-07-01T08:45:44.881Z,24.72
2018-07-01T08:50:40.127Z,25.19
2018-07-01T08:55:35.283Z,25.62
2018-07-01T09:00:30.515Z,25.75
2018-07-01T09:05:25.817Z,25.35
2018-07-01T09:10:21.386Z,26.08
2018-07-01T09:15:16.678Z,25.92
2018-07-01T09:20:12.495Z,26.47
2018-07-01T09:25:07.956Z,26.32
2018-07-01T09:30:03.910Z,26.74
2018-07-01T09:35:06.315Z,26.78
2018-07-01T09:40:02.691Z,26.47
2018-07-01T09:44:57.974Z,25.72
2018-07-01T09:49:53.453Z,26.24
2018-07-01T09:54:49.483Z,26.53
2018-07-01T10:00:47.543Z,27.00
2018-07-01T10:05:42.929Z,26.26
2018-07-01T10:10:38.275Z,25.55
2018-07-01T10:15:33.734Z,25.73
2018-07-01T10:20:29.167Z,25.25
2018-07-01T10:36:45.617Z,26.07
2018-07-01T10:41:42.082Z,25.80
2018-07-01T10:46:37.476Z,26.12
2018-07-01T10:51:34.165Z,26.36
2018-07-01T10:56:29.581Z,26.39
2018-07-01T11:01:26.313Z,26.08
2018-07-01T11:06:23.436Z,26.27
2018-07-01T11:11:19.920Z,26.94
2018-07-01T11:16:15.432Z,26.91
2018-07-01T11:21:10.595Z,26.80
2018-07-01T11:26:05.527Z,26.78
2018-07-01T11:31:01.475Z,26.94
2018-07-01T11:35:56.685Z,26.94
2018-07-01T11:40:52.748Z,26.59
2018-07-01T11:45:51.123Z,26.47
2018-07-01T11:50:46.541Z,27.21
2018-07-01T11:55:42.275Z,27.37
2018-07-01T12:00:37.589Z,27.14
2018-07-01T12:05:33.385Z,27.34
2018-07-01T12:10:28.637Z,27.42
2018-07-01T12:15:23.981Z,27.90
2018-07-01T12:20:19.486Z,28.03
2018-07-01T12:25:15.199Z,27.77
2018-07-01T12:30:12.099Z,27.97
2018-07-01T12:35:07.651Z,27.85
2018-07-01T12:40:02.784Z,28.32
2018-07-01T12:44:58.151Z,27.54
2018-07-01T12:49:53.366Z,27.78
2018-07-01T12:54:48.608Z,27.65
2018-07-01T12:59:44.519Z,27.66
2018-07-01T13:04:39.950Z,27.70
2018-07-01T13:09:35.762Z,27.42
2018-07-01T13:14:31.019Z,27.33
2018-07-01T13:19:26.528Z,27.64
2018-07-01T13:24:21.733Z,28.06
2018-07-01T13:29:17.324Z,28.01
2018-07-01T13:34:12.447Z,28.05
2018-07-01T13:39:11.709Z,27.90
2018-07-01T13:44:08.321Z,27.76
2018-07-01T13:49:03.946Z,27.97
2018-07-01T13:53:59.772Z,27.96
2018-07-01T13:58:55.159Z,28.24
2018-07-01T14:03:50.530Z,28.00
2018-07-01T14:08:46.535Z,28.17
2018-07-01T14:13:41.912Z,28.07
2018-07-01T14:18:37.223Z,28.08
2018-07-01T14:23:33.640Z,28.08
2018-07-01T14:28:29.768Z,27.99
2018-07-01T14:33:27.117Z,28.10
2018-07-01T14:38:23.493Z,28.12
2018-07-01T14:43:19.662Z,27.93
2018-07-01T14:48:15.383Z,27.93
2018-07-01T14:53:10.725Z,28.17
2018-07-01T14:58:06.111Z,27.96
2018-07-01T15:03:01.553Z,28.05
2018-07-01T15:07:57.036Z,27.90
2018-07-01T15:12:52.830Z,27.99
2018-07-01T15:17:48.388Z,28.01
2018-07-01T15:22:43.735Z,27.88
2018-07-01T15:27:39.203Z,28.13
2018-07-01T15:32:35.966Z,27.82
2018-07-01T15:37:34.050Z,27.82
2018-07-01T15:42:30.312Z,27.88
2018-07-01T15:47:27.580Z,28.06
2018-07-01T15:52:23.665Z,27.73
2018-07-01T15:57:22.302Z,27.56
2018-07-01T16:02:19.008Z,27.35
2018-07-01T16:07:15.723Z,27.47
2018-07-01T16:12:11.523Z,27.09
2018-07-01T16:17:07.319Z,27.04
2018-07-01T16:22:02.807Z,27.11
2018-07-01T16:27:03.945Z,26.97
2018-07-01T16:32:01.233Z,26.84
2018-07-01T16:37:04.090Z,26.83
2018-07-01T16:41:59.422Z,27.18
2018-07-01T16:46:54.703Z,26.77
2018-07-01T16:51:50.071Z,26.98
2018-07-01T16:56:46.541Z,26.85
2018-07-01T17:01:41.928Z,26.72
2018-07-01T17:06:37.438Z,26.38
2018-07-01T17:11:33.996Z,26.23
2018-07-01T17:16:30.090Z,26.34
2018-07-01T17:21:25.357Z,26.36
2018-07-01T17:26:20.418Z,26.30
2018-07-01T17:33:29.094Z,26.20
2018-07-01T17:38:24.838Z,25.75
2018-07-01T17:43:19.967Z,25.77
2018-07-01T17:48:15.276Z,25.78
2018-07-01T17:54:19.213Z,25.70
2018-07-01T17:59:14.993Z,25.68
2018-07-01T18:04:10.954Z,25.45
2018-07-01T18:09:08.525Z,25.18
2018-07-01T18:14:03.856Z,24.94
2018-07-01T18:18:59.804Z,24.86
2018-07-01T18:24:27.545Z,24.85
2018-07-01T18:28:59.161Z,24.63
2018-07-01T18:33:45.899Z,24.47
2018-07-01T18:38:41.083Z,24.47
2018-07-01T18:43:37.938Z,24.40
2018-07-01T18:48:33.202Z,24.16
2018-07-01T18:53:28.529Z,25.02
2018-07-01T18:58:24.928Z,24.91
2018-07-01T19:03:21.667Z,24.72
2018-07-01T19:08:18.063Z,24.47
2018-07-01T19:13:13.513Z,24.23
2018-07-01T19:18:09.086Z,23.87
2018-07-01T19:24:33.795Z,23.54
2018-07-01T19:29:29.110Z,23.12
2018-07-01T19:34:24.259Z,23.00
2018-07-01T19:39:20.307Z,22.90
2018-07-01T19:44:15.665Z,22.82
2018-07-01T19:49:11.065Z,22.69
2018-07-01T19:54:06.440Z,22.65
2018-07-01T19:59:01.750Z,22.54
2018-07-01T20:03:58.059Z,22.42
2018-07-01T20:08:53.577Z,22.35
2018-07-01T20:13:48.708Z,22.24
2018-07-01T20:18:44.042Z,22.21
2018-07-01T20:23:39.431Z,22.06
2018-07-01T20:28:34.669Z,21.98
2018-07-01T20:33:30.976Z,21.87
2018-07-01T20:38:32.610Z,21.87
2018-07-01T20:44:57.935Z,21.86
2018-07-01T20:49:53.372Z,21.72
2018-07-01T20:54:48.343Z,21.55
2018-07-01T20:59:43.638Z,21.46
2018-07-01T21:04:39.303Z,21.43
2018-07-01T21:09:40.336Z,21.32
2018-07-01T21:14:35.591Z,21.25
2018-07-01T21:19:36.723Z,21.21
2018-07-01T21:24:32.341Z,21.14
2018-07-01T21:29:27.700Z,20.98
2018-07-01T21:35:52.508Z,21.05
2018-07-01T21:40:49.285Z,20.90
2018-07-01T21:45:44.934Z,20.78
2018-07-01T21:50:40.126Z,20.80
2018-07-01T21:55:35.475Z,20.65
2018-07-01T22:00:31.541Z,20.59
2018-07-01T22:05:28.006Z,20.54
2018-07-01T22:10:39.677Z,20.59
2018-07-01T22:15:51.238Z,20.52
2018-07-01T22:20:46.684Z,20.34
2018-07-01T22:25:41.588Z,20.28
2018-07-01T22:30:37.035Z,20.13
2018-07-01T22:35:32.360Z,20.13
2018-07-01T22:40:27.741Z,20.16
2018-07-01T22:45:23.065Z,20.08
2018-07-01T22:50:18.067Z,19.92
2018-07-01T22:55:13.316Z,19.86
2018-07-01T23:00:08.841Z,19.94
2018-07-01T23:05:04.013Z,19.83
2018-07-01T23:09:59.122Z,19.85
2018-07-01T23:14:54.051Z,19.75
2018-07-01T23:19:49.355Z,19.70
2018-07-01T23:24:44.693Z,19.69
2018-07-01T23:29:39.904Z,19.69
2018-07-01T23:34:35.198Z,19.50
2018-07-01T23:39:30.591Z,19.44
2018-07-01T23:44:26.001Z,19.36
2018-07-01T23:49:21.094Z,19.30
2018-07-01T23:54:16.720Z,19.15
2018-07-01T23:59:11.992Z,19.07
